createdAt,value
2022-08-17T00:00:35.042Z,24.16
2022-08-17T00:03:04.728Z,24.27
2022-08-17T00:05:34.322Z,24.28
2022-08-17T00:08:02.556Z,24.16
2022-08-17T00:10:32.289Z,24.26
2022-08-17T00:13:01.465Z,24.25
2022-08-17T00:15:29.730Z,24.36
2022-08-17T00:17:57.862Z,24.16
2022-08-17T00:20:33.600Z,23.82
2022-08-17T00:23:04.680Z,23.68
2022-08-17T00:25:34.313Z,23.60
2022-08-17T00:28:02.723Z,23.53
2022-08-17T00:30:31.400Z,23.58
2022-08-17T00:33:20.806Z,23.66
2022-08-17T00:35:49.975Z,23.63
2022-08-17T00:38:18.527Z,23.23
2022-08-17T00:40:49.396Z,23.10
2022-08-17T00:43:21.693Z,23.39
2022-08-17T00:45:50.498Z,23.28
2022-08-17T00:48:29.239Z,23.39
2022-08-17T00:51:00.626Z,23.37
2022-08-17T00:53:30.218Z,23.39
2022-08-17T00:56:01.374Z,23.35
2022-08-17T00:58:36.451Z,23.37
2022-08-17T01:01:05.565Z,22.98
2022-08-17T01:03:34.632Z,22.99
2022-08-17T01:06:04.636Z,23.08
2022-08-17T01:08:34.241Z,23.04
2022-08-17T01:11:05.529Z,23.09
2022-08-17T01:13:40.688Z,23.04
2022-08-17T01:16:12.912Z,22.93
2022-08-17T01:18:42.313Z,22.81
2022-08-17T01:21:14.240Z,23.05
2022-08-17T01:23:43.923Z,22.95
2022-08-17T01:26:12.085Z,22.72
2022-08-17T01:28:53.632Z,22.93
2022-08-17T01:31:24.008Z,22.95
2022-08-17T01:33:52.294Z,22.82
2022-08-17T01:36:20.672Z,22.84
2022-08-17T01:38:50.333Z,22.80
2022-08-17T01:41:20.215Z,22.57
2022-08-17T01:43:51.123Z,22.83
2022-08-17T01:46:22.524Z,22.76
2022-08-17T01:48:51.707Z,22.73
2022-08-17T01:51:20.048Z,22.83
2022-08-17T01:53:49.934Z,22.52
2022-08-17T01:56:20.787Z,22.75
2022-08-17T01:58:50.204Z,22.68
2022-08-17T02:01:19.051Z,22.68
2022-08-17T02:03:53.249Z,22.57
2022-08-17T02:06:29.090Z,22.68
2022-08-17T02:09:03.524Z,22.47
2022-08-17T02:11:35.126Z,22.50
2022-08-17T02:14:04.181Z,22.36
2022-08-17T02:16:37.652Z,23.10
2022-08-17T02:19:08.143Z,22.81
2022-08-17T02:21:36.934Z,22.74
2022-08-17T02:24:06.227Z,22.68
2022-08-17T02:26:36.176Z,22.61
2022-08-17T02:29:04.524Z,22.72
2022-08-17T02:31:32.783Z,22.71
2022-08-17T02:36:43.193Z,22.62
2022-08-17T02:39:13.241Z,23.23
2022-08-17T02:41:42.978Z,23.58
2022-08-17T02:44:11.505Z,23.77
2022-08-17T02:46:39.765Z,23.99
2022-08-17T02:49:08.057Z,23.47
2022-08-17T02:51:36.534Z,23.22
2022-08-17T02:54:41.181Z,22.91
2022-08-17T02:56:57.916Z,22.68
2022-08-17T02:59:26.605Z,23.12
2022-08-17T03:01:54.812Z,23.06
2022-08-17T03:04:23.161Z,23.71
2022-08-17T03:06:51.378Z,23.81
2022-08-17T03:09:19.521Z,24.34
2022-08-17T03:11:47.805Z,24.10
2022-08-17T03:14:26.099Z,23.89
2022-08-17T03:16:54.685Z,24.91
2022-08-17T03:19:22.932Z,24.49
2022-08-17T03:21:55.205Z,24.96
2022-08-17T03:24:28.685Z,24.36
2022-08-17T03:26:57.315Z,24.27
2022-08-17T03:29:27.032Z,24.35
2022-08-17T03:31:55.274Z,24.36
2022-08-17T03:34:23.469Z,23.79
2022-08-17T03:36:51.697Z,24.49
2022-08-17T03:39:19.880Z,24.04
2022-08-17T03:41:48.097Z,24.34
2022-08-17T03:44:16.378Z,24.37
2022-08-17T03:47:03.416Z,24.67
2022-08-17T03:49:48.996Z,24.15
2022-08-17T03:52:34.674Z,24.55
2022-08-17T03:55:20.295Z,24.95
2022-08-17T03:58:04.724Z,24.71
2022-08-17T04:00:32.939Z,24.65
2022-08-17T04:03:09.233Z,25.02
2022-08-17T04:05:37.604Z,25.13
2022-08-17T04:08:06.155Z,24.85
2022-08-17T04:10:38.444Z,25.11
2022-08-17T04:13:13.922Z,24.37
2022-08-17T04:15:42.325Z,24.84
2022-08-17T04:18:11.962Z,25.11
2022-08-17T04:20:40.284Z,25.60
2022-08-17T04:23:10.340Z,25.63
2022-08-17T04:25:39.847Z,25.40
2022-08-17T04:28:15.978Z,25.13
2022-08-17T04:30:46.294Z,26.20
2022-08-17T04:33:17.119Z,26.65
2022-08-17T04:35:46.979Z,26.45
2022-08-17T04:38:16.197Z,26.32
2022-08-17T04:40:58.685Z,26.83
2022-08-17T04:43:27.605Z,26.35
2022-08-17T04:45:57.747Z,26.69
2022-08-17T04:48:36.084Z,26.46
2022-08-17T04:51:07.106Z,26.58
2022-08-17T04:53:35.489Z,26.30
2022-08-17T04:56:04.042Z,26.66
2022-08-17T04:58:32.755Z,26.17
2022-08-17T05:01:01.566Z,27.60
2022-08-17T05:03:32.092Z,26.99
2022-08-17T05:06:00.494Z,27.57
2022-08-17T05:08:28.683Z,27.06
2022-08-17T05:10:57.020Z,26.47
2022-08-17T05:13:26.208Z,27.00
2022-08-17T05:15:55.289Z,27.22
2022-08-17T05:18:24.566Z,27.57
2022-08-17T05:20:55.966Z,28.08
2022-08-17T05:23:25.193Z,27.80
2022-08-17T05:25:54.890Z,27.75
2022-08-17T05:28:26.690Z,28.11
2022-08-17T05:30:56.859Z,27.56
2022-08-17T05:33:26.504Z,27.81
2022-08-17T05:35:57.639Z,28.26
2022-08-17T05:38:26.900Z,27.92
2022-08-17T05:40:55.654Z,28.72
2022-08-17T05:43:24.732Z,29.24
2022-08-17T05:45:57.152Z,27.89
2022-08-17T05:48:36.754Z,27.58
2022-08-17T05:51:23.379Z,28.34
2022-08-17T05:53:59.812Z,29.18
2022-08-17T05:56:34.373Z,29.31
2022-08-17T05:59:06.321Z,28.46
2022-08-17T06:01:36.703Z,27.79
2022-08-17T06:04:12.809Z,28.59
2022-08-17T06:06:44.921Z,28.09
2022-08-17T06:09:26.657Z,28.95
2022-08-17T06:12:01.436Z,28.19
2022-08-17T06:14:44.677Z,28.47
2022-08-17T06:17:14.809Z,28.55
2022-08-17T06:19:45.284Z,29.29
2022-08-17T06:22:16.252Z,29.23
2022-08-17T06:24:50.188Z,29.47
2022-08-17T06:27:21.080Z,29.26
2022-08-17T06:29:52.172Z,29.06
2022-08-17T06:32:20.741Z,29.12
2022-08-17T06:34:49.300Z,29.38
2022-08-17T06:37:28.890Z,29.65
2022-08-17T06:40:03.977Z,30.36
2022-08-17T06:42:54.149Z,30.59
2022-08-17T06:45:31.851Z,30.36
2022-08-17T06:48:05.942Z,30.77
2022-08-17T06:50:37.065Z,30.93
2022-08-17T06:53:06.865Z,29.43
2022-08-17T06:55:44.295Z,29.35
2022-08-17T06:58:16.276Z,29.04
2022-08-17T07:00:47.335Z,29.20
2022-08-17T07:03:21.061Z,29.62
2022-08-17T07:05:51.968Z,30.55
2022-08-17T07:08:27.728Z,31.10
2022-08-17T07:11:02.423Z,30.75
2022-08-17T07:13:38.742Z,30.78
2022-08-17T07:16:15.637Z,29.22
2022-08-17T07:18:44.200Z,30.52
2022-08-17T07:21:26.467Z,30.84
2022-08-17T07:24:02.166Z,30.86
2022-08-17T07:26:31.843Z,30.33
2022-08-17T07:29:00.906Z,30.73
2022-08-17T07:31:30.630Z,30.65
2022-08-17T07:34:06.853Z,31.51
2022-08-17T07:36:35.667Z,31.24
2022-08-17T07:39:04.766Z,29.73
2022-08-17T07:41:53.454Z,30.14
2022-08-17T07:44:25.398Z,30.25
2022-08-17T07:47:12.427Z,30.30
2022-08-17T07:49:42.800Z,31.54
2022-08-17T07:52:48.128Z,31.74
2022-08-17T07:55:00.730Z,30.80
2022-08-17T07:57:34.655Z,31.02
2022-08-17T08:00:15.302Z,31.17
2022-08-17T08:02:46.121Z,31.71
2022-08-17T08:05:29.938Z,32.13
2022-08-17T08:08:16.930Z,31.19
2022-08-17T08:10:45.620Z,31.59
2022-08-17T08:13:22.928Z,31.91
2022-08-17T08:15:54.202Z,31.70
2022-08-17T08:18:38.595Z,30.50
2022-08-17T08:21:14.360Z,30.30
2022-08-17T08:23:45.761Z,31.22
2022-08-17T08:26:23.168Z,30.97
2022-08-17T08:28:57.140Z,30.56
2022-08-17T08:31:31.625Z,31.31
2022-08-17T08:34:58.973Z,31.23
2022-08-17T08:37:17.617Z,31.94
2022-08-17T08:39:55.292Z,31.48
2022-08-17T08:42:27.631Z,31.60
2022-08-17T08:45:04.119Z,31.68
2022-08-17T08:47:48.797Z,31.25
2022-08-17T08:50:38.145Z,31.74
2022-08-17T08:53:14.490Z,31.77
2022-08-17T08:55:48.295Z,31.43
2022-08-17T08:58:31.537Z,31.67
2022-08-17T09:01:16.767Z,31.68
2022-08-17T09:04:18.197Z,31.89
2022-08-17T09:06:56.712Z,31.71
2022-08-17T09:09:30.728Z,30.54
2022-08-17T09:12:04.047Z,31.74
2022-08-17T09:14:45.092Z,32.28
2022-08-17T09:17:19.308Z,32.22
2022-08-17T09:19:50.358Z,32.04
2022-08-17T09:22:31.842Z,32.42
2022-08-17T09:25:05.432Z,32.62
2022-08-17T09:27:35.801Z,32.87
2022-08-17T09:30:08.588Z,33.19
2022-08-17T09:32:41.621Z,33.32
2022-08-17T09:35:13.810Z,33.02
2022-08-17T09:37:49.200Z,32.17
2022-08-17T09:40:19.632Z,31.95
2022-08-17T09:42:58.564Z,31.88
2022-08-17T09:45:31.732Z,31.79
2022-08-17T09:48:06.555Z,31.32
2022-08-17T09:51:03.462Z,31.85
2022-08-17T09:53:31.915Z,31.86
2022-08-17T09:56:07.973Z,31.80
2022-08-17T09:58:44.469Z,32.53
2022-08-17T10:01:18.455Z,33.03
2022-08-17T10:04:00.469Z,31.53
2022-08-17T10:06:32.095Z,32.38
2022-08-17T10:09:07.595Z,32.43
2022-08-17T10:11:55.440Z,32.38
2022-08-17T10:14:37.760Z,32.50
2022-08-17T10:17:15.958Z,33.03
2022-08-17T10:19:51.078Z,32.02
2022-08-17T10:22:41.796Z,32.18
2022-08-17T10:25:48.660Z,32.06
2022-08-17T10:28:20.379Z,32.29
2022-08-17T10:30:57.979Z,32.86
2022-08-17T10:33:48.084Z,32.79
2022-08-17T10:36:20.739Z,32.44
2022-08-17T10:38:51.396Z,31.12
2022-08-17T10:41:25.914Z,32.48
2022-08-17T10:44:40.483Z,32.69
2022-08-17T10:47:02.630Z,32.30
2022-08-17T10:49:35.929Z,32.81
2022-08-17T10:52:26.414Z,31.55
2022-08-17T10:55:10.862Z,32.25
2022-08-17T10:57:40.848Z,32.03
2022-08-17T11:00:13.454Z,32.40
2022-08-17T11:02:48.069Z,31.92
2022-08-17T11:05:31.702Z,31.66
2022-08-17T11:08:08.330Z,32.47
2022-08-17T11:10:49.912Z,32.32
2022-08-17T11:13:26.801Z,32.81
2022-08-17T11:16:04.859Z,32.98
2022-08-17T11:18:58.703Z,33.79
2022-08-17T11:21:39.471Z,32.51
2022-08-17T11:24:15.070Z,32.72
2022-08-17T11:26:47.764Z,32.65
2022-08-17T11:29:21.588Z,32.05
2022-08-17T11:32:00.855Z,32.41
2022-08-17T11:34:31.336Z,33.42
2022-08-17T11:37:13.100Z,32.36
2022-08-17T11:39:55.819Z,33.16
2022-08-17T11:42:31.388Z,33.13
2022-08-17T11:45:01.986Z,32.99
2022-08-17T11:48:15.929Z,32.63
2022-08-17T11:51:04.181Z,32.97
2022-08-17T11:53:59.813Z,32.68
2022-08-17T11:56:43.791Z,32.67
2022-08-17T11:59:32.807Z,32.58
2022-08-17T12:02:01.836Z,33.43
2022-08-17T12:04:31.832Z,32.55
2022-08-17T12:07:01.998Z,32.65
2022-08-17T12:09:31.759Z,33.02
2022-08-17T12:12:13.351Z,33.78
2022-08-17T12:15:09.044Z,32.81
2022-08-17T12:17:40.118Z,33.01
2022-08-17T12:20:15.189Z,32.15
2022-08-17T12:22:49.675Z,32.99
2022-08-17T12:25:21.813Z,33.02
2022-08-17T12:28:04.911Z,32.03
2022-08-17T12:30:36.644Z,31.55
2022-08-17T12:33:05.234Z,32.14
2022-08-17T12:35:36.184Z,32.92
2022-08-17T12:38:06.631Z,32.51
2022-08-17T12:40:57.879Z,32.78
2022-08-17T12:43:30.598Z,32.78
2022-08-17T12:46:01.122Z,33.19
2022-08-17T12:48:58.848Z,32.73
2022-08-17T12:51:29.453Z,32.89
2022-08-17T12:53:57.807Z,32.89
2022-08-17T12:56:26.062Z,33.03
2022-08-17T12:58:56.641Z,32.66
2022-08-17T13:01:25.419Z,32.08
2022-08-17T13:03:55.250Z,31.86
2022-08-17T13:06:28.650Z,32.21
2022-08-17T13:08:57.082Z,32.66
2022-08-17T13:11:26.089Z,32.71
2022-08-17T13:13:56.433Z,32.62
2022-08-17T13:16:26.020Z,33.10
2022-08-17T13:18:55.740Z,32.45
2022-08-17T13:21:27.981Z,32.60
2022-08-17T13:23:57.805Z,32.58
2022-08-17T13:26:30.566Z,32.56
2022-08-17T13:29:01.189Z,32.51
2022-08-17T13:31:42.860Z,32.43
2022-08-17T13:34:33.387Z,33.39
2022-08-17T13:37:34.924Z,33.54
2022-08-17T13:40:24.010Z,32.69
2022-08-17T13:42:54.183Z,32.25
2022-08-17T13:45:39.320Z,32.90
2022-08-17T13:48:14.025Z,33.09
2022-08-17T13:50:45.665Z,33.24
2022-08-17T13:53:17.669Z,33.19
2022-08-17T13:55:49.312Z,33.08
2022-08-17T13:58:22.034Z,33.41
2022-08-17T14:00:51.956Z,33.84
2022-08-17T14:03:20.540Z,33.24
2022-08-17T14:05:50.184Z,33.27
2022-08-17T14:08:19.989Z,32.75
2022-08-17T14:10:50.429Z,33.11
2022-08-17T14:13:18.776Z,33.54
2022-08-17T14:15:54.830Z,33.34
2022-08-17T14:18:55.498Z,32.55
2022-08-17T14:21:14.767Z,32.27
2022-08-17T14:23:54.423Z,32.31
2022-08-17T14:26:23.937Z,32.51
2022-08-17T14:28:56.618Z,32.58
2022-08-17T14:31:25.416Z,32.34
2022-08-17T14:33:55.438Z,32.85
2022-08-17T14:36:23.935Z,33.10
2022-08-17T14:38:52.098Z,33.23
2022-08-17T14:41:22.265Z,33.46
2022-08-17T14:43:51.593Z,32.70
2022-08-17T14:46:19.792Z,32.29
2022-08-17T14:48:48.577Z,32.82
2022-08-17T14:51:18.168Z,32.31
2022-08-17T14:53:46.501Z,32.84
2022-08-17T14:56:14.700Z,33.22
2022-08-17T14:58:43.446Z,33.12
2022-08-17T15:01:12.269Z,33.28
2022-08-17T15:03:41.030Z,31.92
2022-08-17T15:06:09.851Z,32.55
2022-08-17T15:08:39.989Z,32.75
2022-08-17T15:11:14.408Z,32.73
2022-08-17T15:13:52.845Z,32.81
2022-08-17T15:16:21.640Z,32.46
2022-08-17T15:18:50.447Z,32.52
2022-08-17T15:21:18.814Z,32.36
2022-08-17T15:23:48.551Z,32.26
2022-08-17T15:26:16.985Z,32.20
2022-08-17T15:28:49.944Z,32.65
2022-08-17T15:31:32.310Z,32.86
2022-08-17T15:34:00.913Z,32.98
2022-08-17T15:36:29.264Z,32.66
2022-08-17T15:38:59.085Z,32.05
2022-08-17T15:41:28.410Z,32.47
2022-08-17T15:43:57.098Z,32.76
2022-08-17T15:46:27.177Z,32.42
2022-08-17T15:48:58.350Z,32.18
2022-08-17T15:51:27.988Z,32.58
2022-08-17T15:53:57.519Z,32.74
2022-08-17T15:56:27.577Z,32.47
2022-08-17T15:58:56.458Z,33.06
2022-08-17T16:03:09.884Z,32.52
2022-08-17T16:04:29.568Z,32.83
2022-08-17T16:06:59.555Z,32.61
2022-08-17T16:09:27.793Z,33.03
2022-08-17T16:11:57.435Z,32.88
2022-08-17T16:14:28.872Z,32.85
2022-08-17T16:17:03.644Z,32.77
2022-08-17T16:19:32.618Z,32.89
2022-08-17T16:22:00.890Z,32.47
2022-08-17T16:24:29.117Z,32.79
2022-08-17T16:26:58.916Z,32.80
2022-08-17T16:29:27.125Z,32.56
2022-08-17T16:31:55.554Z,32.48
2022-08-17T16:34:24.034Z,32.46
2022-08-17T16:36:55.919Z,32.17
2022-08-17T16:39:26.146Z,32.21
2022-08-17T16:41:54.945Z,32.31
2022-08-17T16:44:24.917Z,32.21
2022-08-17T16:46:53.567Z,32.11
2022-08-17T16:49:36.134Z,31.89
2022-08-17T16:52:07.861Z,31.95
2022-08-17T16:54:38.458Z,31.99
2022-08-17T16:57:07.047Z,31.84
2022-08-17T16:59:40.981Z,31.89
2022-08-17T17:02:14.545Z,31.80
2022-08-17T17:04:46.908Z,31.80
2022-08-17T17:07:21.381Z,31.70
2022-08-17T17:09:52.718Z,31.70
2022-08-17T17:13:03.013Z,31.65
2022-08-17T17:15:11.725Z,31.48
2022-08-17T17:17:40.455Z,31.47
2022-08-17T17:20:10.555Z,31.32
2022-08-17T17:22:42.934Z,31.36
2022-08-17T17:25:15.078Z,31.34
2022-08-17T17:27:48.664Z,31.27
2022-08-17T17:30:21.456Z,31.23
2022-08-17T17:32:51.988Z,30.97
2022-08-17T17:35:24.305Z,30.99
2022-08-17T17:37:53.816Z,30.96
2022-08-17T17:40:23.859Z,30.92
2022-08-17T17:42:53.676Z,30.88
2022-08-17T17:45:26.137Z,30.85
2022-08-17T17:47:55.434Z,30.73
2022-08-17T17:50:27.063Z,30.68
2022-08-17T17:53:02.254Z,30.62
2022-08-17T17:55:36.196Z,30.52
2022-08-17T17:58:10.337Z,30.45
2022-08-17T18:00:41.691Z,30.40
2022-08-17T18:03:15.327Z,30.23
2022-08-17T18:05:54.919Z,30.18
2022-08-17T18:08:36.353Z,30.14
2022-08-17T18:11:11.524Z,30.06
2022-08-17T18:13:50.762Z,30.01
2022-08-17T18:16:21.443Z,29.90
2022-08-17T18:18:50.154Z,29.71
2022-08-17T18:21:19.667Z,29.60
2022-08-17T18:23:49.020Z,29.45
2022-08-17T18:26:36.609Z,29.34
2022-08-17T18:29:15.947Z,29.41
2022-08-17T18:31:45.669Z,29.31
2022-08-17T18:34:45.804Z,29.26
2022-08-17T18:37:12.533Z,29.22
2022-08-17T18:39:45.135Z,29.22
2022-08-17T18:42:24.757Z,29.14
2022-08-17T18:44:55.290Z,28.98
2022-08-17T18:47:26.407Z,28.88
2022-08-17T18:49:58.154Z,28.94
2022-08-17T18:52:27.899Z,28.81
2022-08-17T18:55:02.677Z,28.80
2022-08-17T18:57:34.788Z,28.73
2022-08-17T19:00:11.451Z,28.60
2022-08-17T19:02:50.586Z,28.65
2022-08-17T19:05:27.835Z,28.55
2022-08-17T19:07:56.207Z,28.52
2022-08-17T19:10:25.505Z,28.63
2022-08-17T19:13:00.200Z,28.55
2022-08-17T19:15:32.383Z,28.40
2022-08-17T19:18:04.544Z,28.34
2022-08-17T19:20:35.782Z,28.18
2022-08-17T19:23:07.370Z,28.07
2022-08-17T19:25:39.755Z,28.07
2022-08-17T19:28:21.646Z,27.99
2022-08-17T19:30:51.325Z,28.00
2022-08-17T19:33:21.050Z,27.97
2022-08-17T19:35:55.160Z,27.84
2022-08-17T19:38:31.507Z,27.87
2022-08-17T19:41:03.283Z,27.75
2022-08-17T19:43:43.761Z,27.76
2022-08-17T19:46:17.641Z,27.74
2022-08-17T19:48:52.304Z,27.66
2022-08-17T19:51:26.552Z,27.62
2022-08-17T19:54:08.214Z,27.59
2022-08-17T19:56:41.511Z,27.67
2022-08-17T19:59:14.049Z,27.57
2022-08-17T20:01:45.064Z,27.66
2022-08-17T20:04:18.092Z,27.67
2022-08-17T20:06:49.423Z,27.57
2022-08-17T20:09:21.407Z,27.62
2022-08-17T20:11:51.073Z,27.52
2022-08-17T20:14:21.866Z,27.41
2022-08-17T20:16:50.267Z,27.44
2022-08-17T20:19:29.231Z,27.36
2022-08-17T20:22:01.413Z,27.37
2022-08-17T20:24:33.579Z,27.19
2022-08-17T20:27:11.158Z,27.22
2022-08-17T20:29:54.153Z,27.20
2022-08-17T20:32:25.353Z,27.17
2022-08-17T20:35:04.487Z,27.06
2022-08-17T20:37:34.034Z,26.91
2022-08-17T20:40:23.186Z,26.94
2022-08-17T20:42:51.485Z,26.81
2022-08-17T20:45:38.298Z,26.75
2022-08-17T20:51:18.442Z,26.69
2022-08-17T20:54:07.804Z,26.79
2022-08-17T20:56:50.323Z,26.82
2022-08-17T20:59:38.661Z,26.70
2022-08-17T21:02:18.377Z,26.70
2022-08-17T21:05:00.324Z,26.68
2022-08-17T21:07:40.016Z,26.63
2022-08-17T21:10:14.075Z,26.56
2022-08-17T21:12:43.760Z,26.42
2022-08-17T21:15:22.972Z,26.44
2022-08-17T21:17:59.248Z,26.37
2022-08-17T21:20:34.515Z,26.23
2022-08-17T21:23:12.587Z,26.30
2022-08-17T21:25:53.018Z,26.36
2022-08-17T21:28:30.097Z,26.40
2022-08-17T21:31:09.157Z,26.28
2022-08-17T21:33:39.130Z,26.14
2022-08-17T21:36:26.310Z,26.08
2022-08-17T21:39:08.884Z,26.15
2022-08-17T21:41:48.510Z,26.23
2022-08-17T21:44:21.861Z,26.10
2022-08-17T21:46:52.094Z,26.09
2022-08-17T21:49:21.334Z,26.08
2022-08-17T21:51:53.917Z,26.20
2022-08-17T21:54:27.817Z,26.03
2022-08-17T21:56:56.148Z,26.01
2022-08-17T21:59:27.429Z,25.86
2022-08-17T22:01:58.035Z,25.97
2022-08-17T22:04:27.937Z,25.85
2022-08-17T22:06:57.079Z,25.92
2022-08-17T22:09:28.854Z,25.83
2022-08-17T22:12:00.117Z,25.94
2022-08-17T22:14:51.669Z,25.95
2022-08-17T22:17:19.155Z,25.42
2022-08-17T22:19:49.071Z,25.00
2022-08-17T22:22:27.065Z,25.24
2022-08-17T22:24:58.773Z,24.39
2022-08-17T22:27:45.647Z,24.54
2022-08-17T22:30:32.664Z,25.11
2022-08-17T22:33:02.371Z,25.13
2022-08-17T22:35:34.499Z,25.21
2022-08-17T22:38:21.218Z,25.46
2022-08-17T22:40:52.426Z,25.37
2022-08-17T22:43:26.215Z,25.23
2022-08-17T22:46:00.196Z,24.87
2022-08-17T22:48:31.416Z,24.58
2022-08-17T22:51:12.434Z,24.69
2022-08-17T22:54:04.042Z,24.98
2022-08-17T22:56:51.145Z,25.10
2022-08-17T22:59:35.161Z,24.86
2022-08-17T23:02:18.025Z,24.85
2022-08-17T23:04:47.807Z,24.89
2022-08-17T23:07:16.053Z,24.85
2022-08-17T23:09:44.437Z,24.75
2022-08-17T23:12:16.267Z,24.79
2022-08-17T23:14:46.169Z,24.75
2022-08-17T23:17:16.500Z,24.59
2022-08-17T23:19:45.169Z,24.23
2022-08-17T23:22:13.368Z,24.34
2022-08-17T23:24:44.209Z,24.33
2022-08-17T23:27:12.572Z,24.41
2022-08-17T23:29:42.300Z,24.22
2022-08-17T23:32:13.558Z,24.24
2022-08-17T23:34:42.738Z,24.22
2022-08-17T23:37:11.356Z,24.05
2022-08-17T23:39:40.157Z,24.01
2022-08-17T23:42:09.309Z,24.15
2022-08-17T23:44:37.935Z,24.12
2022-08-17T23:47:08.180Z,24.16
2022-08-17T23:49:37.550Z,23.99
2022-08-17T23:52:07.759Z,24.10
2022-08-17T23:54:37.603Z,24.12
2022-08-17T23:57:06.174Z,23.85
2022-08-17T23:59:37.239Z,23.82
